createdAt,value
2023-01-22T00:01:28.927Z,100.00
2023-01-22T00:06:32.203Z,100.00
2023-01-22T00:11:35.044Z,100.00
2023-01-22T00:16:39.796Z,100.00
2023-01-22T00:21:42.594Z,100.00
2023-01-22T00:26:45.662Z,100.00
2023-01-22T00:31:48.915Z,100.00
2023-01-22T00:36:51.990Z,100.00
2023-01-22T00:41:54.860Z,100.00
2023-01-22T00:46:57.745Z,100.00
2023-01-22T00:52:02.919Z,100.00
2023-01-22T00:57:05.702Z,100.00
2023-01-22T01:02:08.831Z,100.00
2023-01-22T01:07:11.719Z,100.00
2023-01-22T01:12:14.498Z,100.00
2023-01-22T01:17:17.352Z,100.00
2023-01-22T01:22:20.533Z,100.00
2023-01-22T01:27:23.305Z,100.00
2023-01-22T01:32:26.084Z,100.00
2023-01-22T01:37:28.910Z,100.00
2023-01-22T01:42:35.181Z,100.00
2023-01-22T01:47:38.126Z,100.00
2023-01-22T01:52:40.875Z,100.00
2023-01-22T01:57:43.687Z,100.00
2023-01-22T02:02:46.545Z,100.00
2023-01-22T02:07:49.353Z,100.00
2023-01-22T02:12:54.209Z,100.00
2023-01-22T02:17:57.044Z,100.00
2023-01-22T02:22:59.815Z,100.00
2023-01-22T02:28:05.120Z,100.00
2023-01-22T02:33:07.947Z,100.00
2023-01-22T02:38:10.752Z,100.00
2023-01-22T02:43:13.515Z,100.00
2023-01-22T02:48:16.285Z,100.00
2023-01-22T02:53:19.425Z,100.00
2023-01-22T02:58:22.279Z,100.00
2023-01-22T03:03:25.142Z,100.00
2023-01-22T03:08:27.877Z,100.00
2023-01-22T03:13:49.384Z,100.00
2023-01-22T03:19:11.018Z,100.00
2023-01-22T03:24:13.855Z,100.00
2023-01-22T03:29:16.647Z,100.00
2023-01-22T03:34:21.219Z,100.00
2023-01-22T03:39:24.111Z,100.00
2023-01-22T03:44:27.017Z,100.00
2023-01-22T03:49:29.845Z,100.00
2023-01-22T03:54:32.682Z,100.00
2023-01-22T03:59:35.447Z,100.00
2023-01-22T04:04:38.297Z,100.00
2023-01-22T04:09:41.079Z,100.00
2023-01-22T04:14:43.882Z,100.00
2023-01-22T04:19:46.666Z,100.00
2023-01-22T04:24:49.404Z,100.00
2023-01-22T04:29:52.218Z,100.00
2023-01-22T04:34:55.116Z,100.00
2023-01-22T04:39:57.987Z,100.00
2023-01-22T04:45:00.904Z,100.00
2023-01-22T04:50:04.619Z,100.00
2023-01-22T04:55:08.377Z,100.00
2023-01-22T05:00:12.099Z,100.00
2023-01-22T05:05:15.081Z,100.00
2023-01-22T05:10:19.165Z,100.00
2023-01-22T05:15:24.970Z,100.00
2023-01-22T05:20:28.116Z,100.00
2023-01-22T05:25:30.903Z,100.00
2023-01-22T05:30:33.789Z,100.00
2023-01-22T05:35:36.696Z,100.00
2023-01-22T05:40:39.535Z,100.00
2023-01-22T05:45:42.317Z,100.00
2023-01-22T05:50:45.095Z,100.00
2023-01-22T05:55:47.850Z,100.00
2023-01-22T06:00:53.096Z,100.00
2023-01-22T06:06:04.798Z,100.00
2023-01-22T06:11:12.274Z,100.00
2023-01-22T06:16:15.092Z,100.00
2023-01-22T06:21:17.879Z,100.00
2023-01-22T06:26:20.644Z,100.00
2023-01-22T06:31:23.494Z,100.00
2023-01-22T06:36:26.419Z,100.00
2023-01-22T06:41:29.419Z,100.00
2023-01-22T06:46:32.341Z,100.00
2023-01-22T06:51:35.127Z,100.00
2023-01-22T06:56:37.895Z,100.00
2023-01-22T07:01:42.103Z,100.00
2023-01-22T07:06:44.947Z,100.00
2023-01-22T07:11:47.833Z,100.00
2023-01-22T07:16:50.583Z,100.00
2023-01-22T07:21:53.416Z,100.00
2023-01-22T07:26:56.154Z,100.00
2023-01-22T07:31:59.046Z,100.00
2023-01-22T07:37:03.800Z,100.00
2023-01-22T07:42:06.863Z,100.00
2023-01-22T07:47:10.616Z,100.00
2023-01-22T07:52:13.428Z,99.98
2023-01-22T07:57:16.779Z,100.00
2023-01-22T08:02:19.882Z,99.93
2023-01-22T08:07:23.513Z,99.68
2023-01-22T08:12:26.380Z,99.75
2023-01-22T08:17:29.252Z,99.86
2023-01-22T08:22:32.563Z,99.81
2023-01-22T08:27:35.807Z,99.86
2023-01-22T08:32:41.293Z,99.78
2023-01-22T08:37:44.142Z,99.88
2023-01-22T08:42:52.172Z,99.83
2023-01-22T08:47:59.876Z,99.76
2023-01-22T08:53:02.737Z,99.24
2023-01-22T08:58:05.524Z,99.02
2023-01-22T09:03:08.314Z,99.04
2023-01-22T09:08:11.106Z,99.22
2023-01-22T09:13:13.910Z,99.28
2023-01-22T09:18:16.699Z,99.55
2023-01-22T09:23:19.597Z,99.27
2023-01-22T09:28:22.420Z,99.14
2023-01-22T09:33:25.331Z,99.10
2023-01-22T09:38:28.145Z,99.11
2023-01-22T09:43:55.041Z,99.01
2023-01-22T09:49:16.314Z,98.75
2023-01-22T09:54:19.196Z,98.81
2023-01-22T09:59:27.829Z,98.92
2023-01-22T10:04:40.821Z,98.63
2023-01-22T10:09:50.876Z,98.46
2023-01-22T10:14:53.679Z,98.58
2023-01-22T10:20:00.238Z,97.90
2023-01-22T10:25:03.053Z,97.78
2023-01-22T10:30:23.268Z,97.51
2023-01-22T10:35:26.569Z,97.63
2023-01-22T10:40:38.913Z,97.25
2023-01-22T10:45:58.631Z,97.21
2023-01-22T10:51:20.963Z,97.02
2023-01-22T10:56:35.254Z,97.22
2023-01-22T11:01:39.682Z,97.16
2023-01-22T11:06:48.763Z,97.18
2023-01-22T11:12:15.996Z,96.76
2023-01-22T11:17:38.859Z,97.03
2023-01-22T11:22:43.629Z,96.72
2023-01-22T11:28:12.733Z,96.85
2023-01-22T11:33:15.592Z,95.91
2023-01-22T11:38:27.739Z,95.21
2023-01-22T11:44:07.949Z,95.62
2023-01-22T11:50:07.717Z,95.02
2023-01-22T11:55:25.871Z,95.65
2023-01-22T12:00:44.469Z,95.72
2023-01-22T12:06:17.185Z,95.65
2023-01-22T12:11:57.771Z,95.27
2023-01-22T12:17:09.728Z,95.30
2023-01-22T12:23:00.627Z,95.30
2023-01-22T12:28:16.124Z,94.99
2023-01-22T12:33:25.855Z,95.15
2023-01-22T12:38:50.778Z,95.14
2023-01-22T12:43:59.418Z,95.09
2023-01-22T12:49:04.449Z,94.58
2023-01-22T12:54:32.442Z,94.89
2023-01-22T12:59:35.228Z,95.31
2023-01-22T13:04:38.119Z,95.07
2023-01-22T13:09:40.971Z,95.03
2023-01-22T13:14:43.938Z,94.94
2023-01-22T13:19:48.181Z,94.38
2023-01-22T13:24:57.710Z,94.62
2023-01-22T13:30:20.601Z,94.28
2023-01-22T13:35:23.669Z,94.20
2023-01-22T13:40:29.307Z,94.27
2023-01-22T13:45:33.515Z,93.85
2023-01-22T13:50:36.308Z,93.89
2023-01-22T13:55:39.053Z,94.20
2023-01-22T14:00:41.926Z,94.13
2023-01-22T14:05:44.707Z,94.61
2023-01-22T14:10:59.500Z,93.85
2023-01-22T14:16:06.970Z,93.99
2023-01-22T14:21:10.038Z,94.18
2023-01-22T14:26:12.978Z,94.39
2023-01-22T14:31:16.359Z,94.38
2023-01-22T14:36:20.541Z,94.21
2023-01-22T14:41:23.836Z,94.26
2023-01-22T14:46:26.671Z,94.39
2023-01-22T14:51:29.558Z,94.65
2023-01-22T14:56:32.377Z,94.44
2023-01-22T15:01:35.247Z,94.46
2023-01-22T15:06:38.043Z,94.42
2023-01-22T15:11:40.863Z,94.30
2023-01-22T15:16:44.086Z,94.27
2023-01-22T15:21:46.915Z,94.17
2023-01-22T15:26:49.806Z,94.38
2023-01-22T15:31:53.016Z,94.44
2023-01-22T15:36:56.014Z,93.99
2023-01-22T15:41:58.866Z,94.13
2023-01-22T15:47:01.769Z,94.15
2023-01-22T15:52:04.970Z,93.92
2023-01-22T15:57:07.813Z,93.84
2023-01-22T16:02:11.023Z,93.81
2023-01-22T16:07:14.009Z,94.01
2023-01-22T16:12:16.963Z,94.02
2023-01-22T16:17:19.871Z,94.21
2023-01-22T16:22:22.727Z,94.19
2023-01-22T16:27:25.588Z,94.00
2023-01-22T16:32:28.510Z,94.38
2023-01-22T16:37:31.303Z,94.06
2023-01-22T16:42:35.882Z,94.38
2023-01-22T16:47:38.833Z,94.57
2023-01-22T16:52:43.039Z,94.56
2023-01-22T16:57:45.918Z,94.61
2023-01-22T17:02:48.797Z,94.80
2023-01-22T17:07:51.699Z,94.90
2023-01-22T17:12:54.688Z,94.99
2023-01-22T17:17:57.511Z,95.07
2023-01-22T17:23:00.353Z,95.08
2023-01-22T17:28:03.180Z,95.21
2023-01-22T17:33:06.011Z,95.51
2023-01-22T17:38:08.879Z,95.60
2023-01-22T17:43:11.702Z,95.65
2023-01-22T17:48:15.860Z,95.72
2023-01-22T17:53:18.749Z,95.91
2023-01-22T17:58:21.507Z,95.87
2023-01-22T18:03:24.538Z,96.09
2023-01-22T18:08:31.245Z,96.07
2023-01-22T18:13:35.371Z,96.13
2023-01-22T18:18:38.622Z,96.20
2023-01-22T18:23:44.104Z,96.06
2023-01-22T18:28:47.001Z,96.11
2023-01-22T18:33:49.981Z,96.16
2023-01-22T18:38:52.918Z,96.24
2023-01-22T18:43:58.045Z,96.51
2023-01-22T18:49:03.659Z,96.46
2023-01-22T18:54:06.536Z,96.45
2023-01-22T18:59:12.943Z,96.50
2023-01-22T19:04:19.096Z,96.59
2023-01-22T19:09:21.995Z,96.47
2023-01-22T19:14:25.191Z,96.50
2023-01-22T19:19:28.336Z,96.53
2023-01-22T19:24:32.723Z,96.57
2023-01-22T19:29:36.662Z,96.64
2023-01-22T19:34:39.469Z,96.65
2023-01-22T19:39:42.248Z,96.65
2023-01-22T19:44:45.499Z,96.59
2023-01-22T19:49:48.360Z,96.71
2023-01-22T19:54:51.230Z,96.54
2023-01-22T19:59:57.360Z,96.77
2023-01-22T20:05:00.231Z,96.83
2023-01-22T20:10:04.303Z,96.86
2023-01-22T20:15:08.384Z,96.91
2023-01-22T20:20:12.016Z,96.70
2023-01-22T20:25:15.577Z,97.00
2023-01-22T20:30:18.424Z,96.93
2023-01-22T20:35:21.493Z,96.88
2023-01-22T20:40:25.478Z,97.08
2023-01-22T20:45:28.319Z,96.90
2023-01-22T20:50:31.256Z,96.73
2023-01-22T20:55:34.399Z,96.89
2023-01-22T21:00:37.275Z,96.98
2023-01-22T21:05:41.096Z,96.72
2023-01-22T21:10:43.919Z,96.86
2023-01-22T21:15:46.702Z,96.77
2023-01-22T21:20:50.328Z,96.82
2023-01-22T21:25:53.199Z,97.00
2023-01-22T21:30:56.308Z,96.68
2023-01-22T21:35:59.080Z,96.78
2023-01-22T21:41:17.373Z,96.88
2023-01-22T21:46:25.368Z,96.78
2023-01-22T21:51:29.664Z,96.31
2023-01-22T21:56:32.523Z,96.46
2023-01-22T22:01:37.931Z,96.75
2023-01-22T22:06:40.930Z,96.62
2023-01-22T22:11:44.643Z,96.63
2023-01-22T22:16:48.131Z,96.60
2023-01-22T22:21:51.281Z,96.82
2023-01-22T22:26:54.096Z,96.77
2023-01-22T22:31:57.911Z,96.75
2023-01-22T22:37:01.001Z,96.41
2023-01-22T22:42:03.993Z,96.63
2023-01-22T22:47:06.852Z,96.75
2023-01-22T22:52:10.918Z,96.57
2023-01-22T22:57:15.922Z,96.91
2023-01-22T23:02:18.777Z,96.91
2023-01-22T23:07:21.740Z,97.20
2023-01-22T23:12:25.061Z,96.99
2023-01-22T23:17:27.906Z,96.95
2023-01-22T23:22:30.724Z,96.98
2023-01-22T23:27:33.501Z,96.92
2023-01-22T23:32:36.436Z,97.13
2023-01-22T23:37:39.941Z,96.87
2023-01-22T23:42:42.851Z,97.14
2023-01-22T23:47:45.659Z,96.67
2023-01-22T23:52:48.504Z,96.73
2023-01-22T23:57:51.452Z,96.74
